Cable, Ohio
Current Conditions -  °F | °C
As of 3:13 AM on Monday 26 Jan 2015 (Local Time) from KMRT Reporting Station
Overcast Overcast  
Wind Chill: 20°   Ceiling: 2700
Heat Index: 20°   Visibility: 5mi
Dew Point: 17°   Wind: 0mph
Humidity: 87%   Direction: NA
Pressure: 29.77"   Gusts: NA
Location:  40.17°N, 83.63°W
Report Text: KMRT 260813Z AUTO 00000KT 5SM SCT009 BKN027 OVC120 M07/M09 A2977 RMK AO2 T10671086
Loading
Personal Weather Stations






























Interactive Weather Map New forecast layout! Learn more

10-Day Weather Forecast

Advertisements
Track Severe Weather on mobile